sensor_id;sensor_type;location;lat;lon;timestamp;pressure;altitude;pressure_sealevel;temperature;humidity
36234;BME280;43467;50.890;5.982;2024-01-07T00:00:26;100122.41;;;5.76;72.06
36234;BME280;43467;50.890;5.982;2024-01-07T00:02:51;100129.44;;;5.75;71.71
36234;BME280;43467;50.890;5.982;2024-01-07T00:05:17;100121.66;;;5.72;71.57
36234;BME280;43467;50.890;5.982;2024-01-07T00:07:42;100119.84;;;5.74;72.09
36234;BME280;43467;50.890;5.982;2024-01-07T00:10:08;100113.63;;;5.78;72.34
36234;BME280;43467;50.890;5.982;2024-01-07T00:12:35;100118.81;;;5.80;71.77
36234;BME280;43467;50.890;5.982;2024-01-07T00:15:00;100133.91;;;5.72;71.62
36234;BME280;43467;50.890;5.982;2024-01-07T00:17:26;100133.13;;;5.70;72.13
36234;BME280;43467;50.890;5.982;2024-01-07T00:19:51;100141.88;;;5.69;71.62
36234;BME280;43467;50.890;5.982;2024-01-07T00:22:17;100141.97;;;5.66;71.89
36234;BME280;43467;50.890;5.982;2024-01-07T00:24:43;100136.78;;;5.62;72.42
36234;BME280;43467;50.890;5.982;2024-01-07T00:27:08;100133.47;;;5.56;72.83
36234;BME280;43467;50.890;5.982;2024-01-07T00:29:33;100135.41;;;5.49;72.49
36234;BME280;43467;50.890;5.982;2024-01-07T00:32:00;100142.34;;;5.52;73.30
36234;BME280;43467;50.890;5.982;2024-01-07T00:34:26;100140.28;;;5.63;73.21
36234;BME280;43467;50.890;5.982;2024-01-07T00:36:51;100136.50;;;5.73;72.94
36234;BME280;43467;50.890;5.982;2024-01-07T00:39:16;100133.56;;;5.84;72.42
36234;BME280;43467;50.890;5.982;2024-01-07T00:41:42;100147.66;;;5.81;72.39
36234;BME280;43467;50.890;5.982;2024-01-07T00:44:07;100143.28;;;5.82;72.51
36234;BME280;43467;50.890;5.982;2024-01-07T00:46:33;100134.63;;;5.78;72.22
36234;BME280;43467;50.890;5.982;2024-01-07T00:48:58;100138.50;;;5.65;72.26
36234;BME280;43467;50.890;5.982;2024-01-07T00:51:24;100137.06;;;5.53;72.87
36234;BME280;43467;50.890;5.982;2024-01-07T00:53:49;100140.38;;;5.60;72.97
36234;BME280;43467;50.890;5.982;2024-01-07T00:56:15;100140.38;;;5.60;73.36
36234;BME280;43467;50.890;5.982;2024-01-07T00:58:40;100140.38;;;5.60;73.95
36234;BME280;43467;50.890;5.982;2024-01-07T01:01:06;100143.75;;;5.65;73.57
36234;BME280;43467;50.890;5.982;2024-01-07T01:03:31;100148.88;;;5.70;73.14
36234;BME280;43467;50.890;5.982;2024-01-07T01:05:58;100147.06;;;5.72;73.22
36234;BME280;43467;50.890;5.982;2024-01-07T01:08:23;100149.84;;;5.66;72.88
36234;BME280;43467;50.890;5.982;2024-01-07T01:10:48;100154.91;;;5.73;73.37
36234;BME280;43467;50.890;5.982;2024-01-07T01:13:14;100154.81;;;5.76;72.86
36234;BME280;43467;50.890;5.982;2024-01-07T01:15:39;100158.63;;;5.65;72.88
36234;BME280;43467;50.890;5.982;2024-01-07T01:18:05;100165.78;;;5.59;73.28
36234;BME280;43467;50.890;5.982;2024-01-07T01:20:30;100163.13;;;5.27;74.31
36234;BME280;43467;50.890;5.982;2024-01-07T01:22:56;100157.91;;;5.26;74.79
36234;BME280;43467;50.890;5.982;2024-01-07T01:25:21;100171.00;;;5.27;74.84
36234;BME280;43467;50.890;5.982;2024-01-07T01:27:47;100169.44;;;5.20;75.15
36234;BME280;43467;50.890;5.982;2024-01-07T01:30:12;100165.91;;;5.21;75.34
36234;BME280;43467;50.890;5.982;2024-01-07T01:32:39;100167.78;;;5.16;75.53
36234;BME280;43467;50.890;5.982;2024-01-07T01:35:05;100171.41;;;5.10;76.06
36234;BME280;43467;50.890;5.982;2024-01-07T01:37:31;100182.63;;;5.17;76.27
36234;BME280;43467;50.890;5.982;2024-01-07T01:40:01;100179.75;;;5.26;76.03
36234;BME280;43467;50.890;5.982;2024-01-07T01:42:26;100176.25;;;5.27;76.03
36234;BME280;43467;50.890;5.982;2024-01-07T01:44:51;100187.28;;;5.40;75.57
36234;BME280;43467;50.890;5.982;2024-01-07T01:47:18;100182.34;;;5.28;75.39
36234;BME280;43467;50.890;5.982;2024-01-07T01:49:45;100190.19;;;5.29;75.58
36234;BME280;43467;50.890;5.982;2024-01-07T01:52:12;100195.56;;;5.25;76.02
36234;BME280;43467;50.890;5.982;2024-01-07T01:54:38;100201.72;;;5.22;75.81
36234;BME280;43467;50.890;5.982;2024-01-07T01:57:05;100191.06;;;5.30;75.98
36234;BME280;43467;50.890;5.982;2024-01-07T01:59:31;100192.88;;;5.26;76.29
36234;BME280;43467;50.890;5.982;2024-01-07T02:01:59;100197.28;;;5.26;75.69
36234;BME280;43467;50.890;5.982;2024-01-07T02:04:24;100202.97;;;5.43;75.53
36234;BME280;43467;50.890;5.982;2024-01-07T02:06:50;100198.03;;;5.31;75.51
36234;BME280;43467;50.890;5.982;2024-01-07T02:09:15;100201.25;;;5.42;75.04
36234;BME280;43467;50.890;5.982;2024-01-07T02:11:41;100199.84;;;5.29;75.55
36234;BME280;43467;50.890;5.982;2024-01-07T02:14:06;100209.25;;;5.37;75.28
36234;BME280;43467;50.890;5.982;2024-01-07T02:16:32;100200.81;;;5.25;74.99
36234;BME280;43467;50.890;5.982;2024-01-07T02:18:58;100210.16;;;5.35;75.76
36234;BME280;43467;50.890;5.982;2024-01-07T02:21:23;100204.69;;;5.44;75.74
36234;BME280;43467;50.890;5.982;2024-01-07T02:23:49;100204.78;;;5.41;75.56
36234;BME280;43467;50.890;5.982;2024-01-07T02:26:14;100206.50;;;5.42;75.76
36234;BME280;43467;50.890;5.982;2024-01-07T02:28:39;100220.25;;;5.51;75.43
36234;BME280;43467;50.890;5.982;2024-01-07T02:31:05;100218.56;;;5.49;75.50
36234;BME280;43467;50.890;5.982;2024-01-07T02:33:30;100223.78;;;5.50;75.58
36234;BME280;43467;50.890;5.982;2024-01-07T02:35:56;100219.75;;;5.37;75.62
36234;BME280;43467;50.890;5.982;2024-01-07T02:38:21;100218.13;;;5.32;75.76
36234;BME280;43467;50.890;5.982;2024-01-07T02:40:47;100220.19;;;5.19;76.63
36234;BME280;43467;50.890;5.982;2024-01-07T02:43:12;100223.75;;;5.17;77.11
36234;BME280;43467;50.890;5.982;2024-01-07T02:45:37;100230.03;;;5.09;77.15
36234;BME280;43467;50.890;5.982;2024-01-07T02:48:03;100231.88;;;5.06;77.16
36234;BME280;43467;50.890;5.982;2024-01-07T02:50:29;100226.50;;;5.12;77.82
36234;BME280;43467;50.890;5.982;2024-01-07T02:52:54;100226.38;;;5.17;77.41
36234;BME280;43467;50.890;5.982;2024-01-07T02:55:20;100216.97;;;5.08;77.68
36234;BME280;43467;50.890;5.982;2024-01-07T02:57:45;100229.91;;;5.14;77.70
36234;BME280;43467;50.890;5.982;2024-01-07T03:00:11;100240.47;;;5.12;77.48
36234;BME280;43467;50.890;5.982;2024-01-07T03:02:37;100225.59;;;5.13;77.23
36234;BME280;43467;50.890;5.982;2024-01-07T03:05:02;100229.72;;;5.23;77.22
36234;BME280;43467;50.890;5.982;2024-01-07T03:07:28;100239.53;;;5.15;77.17
36234;BME280;43467;50.890;5.982;2024-01-07T03:09:53;100237.91;;;5.09;77.68
36234;BME280;43467;50.890;5.982;2024-01-07T03:12:18;100243.41;;;4.99;77.36
36234;BME280;43467;50.890;5.982;2024-01-07T03:14:44;100220.75;;;4.95;77.90
36234;BME280;43467;50.890;5.982;2024-01-07T03:17:10;100234.47;;;5.07;77.99
36234;BME280;43467;50.890;5.982;2024-01-07T03:19:37;100230.09;;;5.06;78.35
36234;BME280;43467;50.890;5.982;2024-01-07T03:22:02;100223.00;;;5.11;78.10
36234;BME280;43467;50.890;5.982;2024-01-07T03:24:28;100241.97;;;5.23;77.88
36234;BME280;43467;50.890;5.982;2024-01-07T03:26:54;100243.63;;;5.27;77.56
36234;BME280;43467;50.890;5.982;2024-01-07T03:29:19;100242.66;;;5.31;77.35
36234;BME280;43467;50.890;5.982;2024-01-07T03:31:44;100242.31;;;5.44;76.92
36234;BME280;43467;50.890;5.982;2024-01-07T03:34:10;100220.75;;;5.32;77.19
36234;BME280;43467;50.890;5.982;2024-01-07T03:36:35;100235.44;;;5.39;77.16
36234;BME280;43467;50.890;5.982;2024-01-07T03:39:00;100240.19;;;5.25;77.49
36234;BME280;43467;50.890;5.982;2024-01-07T03:41:26;100245.34;;;5.29;77.49
36234;BME280;43467;50.890;5.982;2024-01-07T03:43:51;100241.75;;;5.32;77.71
36234;BME280;43467;50.890;5.982;2024-01-07T03:46:18;100255.78;;;5.31;77.72
36234;BME280;43467;50.890;5.982;2024-01-07T03:48:44;100255.72;;;5.34;77.42
36234;BME280;43467;50.890;5.982;2024-01-07T03:51:10;100254.75;;;5.38;77.57
36234;BME280;43467;50.890;5.982;2024-01-07T03:53:35;100258.34;;;5.34;77.36
36234;BME280;43467;50.890;5.982;2024-01-07T03:56:01;100256.81;;;5.25;77.32
36234;BME280;43467;50.890;5.982;2024-01-07T03:58:26;100258.41;;;5.31;76.88
36234;BME280;43467;50.890;5.982;2024-01-07T04:00:51;100239.44;;;5.20;77.09
36234;BME280;43467;50.890;5.982;2024-01-07T04:03:17;100259.38;;;5.27;77.10
36234;BME280;43467;50.890;5.982;2024-01-07T04:05:42;100262.06;;;5.25;77.16
36234;BME280;43467;50.890;5.982;2024-01-07T04:08:10;100262.78;;;5.30;76.93
36234;BME280;43467;50.890;5.982;2024-01-07T04:10:36;100270.22;;;5.13;76.50
36234;BME280;43467;50.890;5.982;2024-01-07T04:13:02;100266.75;;;5.09;76.90
36234;BME280;43467;50.890;5.982;2024-01-07T04:15:29;100270.34;;;5.07;76.83
36234;BME280;43467;50.890;5.982;2024-01-07T04:17:54;100275.47;;;5.13;77.48
36234;BME280;43467;50.890;5.982;2024-01-07T04:20:20;100266.56;;;5.19;77.40
36234;BME280;43467;50.890;5.982;2024-01-07T04:22:45;100263.91;;;5.20;77.45
36234;BME280;43467;50.890;5.982;2024-01-07T04:25:11;100270.06;;;5.19;77.28
36234;BME280;43467;50.890;5.982;2024-01-07T04:27:37;100276.25;;;5.17;76.84
36234;BME280;43467;50.890;5.982;2024-01-07T04:30:04;100267.72;;;5.07;76.60
36234;BME280;43467;50.890;5.982;2024-01-07T04:32:31;100270.31;;;5.08;76.89
36234;BME280;43467;50.890;5.982;2024-01-07T04:34:57;100272.97;;;5.05;77.16
36234;BME280;43467;50.890;5.982;2024-01-07T04:37:26;100277.34;;;5.06;77.11
36234;BME280;43467;50.890;5.982;2024-01-07T04:39:51;100285.19;;;5.08;76.66
36234;BME280;43467;50.890;5.982;2024-01-07T04:42:17;100289.38;;;5.17;77.05
36234;BME280;43467;50.890;5.982;2024-01-07T04:44:43;100292.81;;;5.19;76.74
36234;BME280;43467;50.890;5.982;2024-01-07T04:47:29;100292.19;;;5.07;77.06
36234;BME280;43467;50.890;5.982;2024-01-07T04:49:55;100295.00;;;5.00;77.27
36234;BME280;43467;50.890;5.982;2024-01-07T04:52:24;100299.34;;;5.01;77.50
36234;BME280;43467;50.890;5.982;2024-01-07T04:54:53;100293.44;;;4.90;77.13
36234;BME280;43467;50.890;5.982;2024-01-07T04:57:19;100299.47;;;4.95;77.78
36234;BME280;43467;50.890;5.982;2024-01-07T04:59:45;100310.53;;;5.09;77.27
36234;BME280;43467;50.890;5.982;2024-01-07T05:02:11;100300.19;;;5.01;76.94
36234;BME280;43467;50.890;5.982;2024-01-07T05:04:37;100298.44;;;5.02;76.85
36234;BME280;43467;50.890;5.982;2024-01-07T05:07:03;100297.63;;;4.98;77.41
36234;BME280;43467;50.890;5.982;2024-01-07T05:09:29;100308.81;;;5.08;76.90
36234;BME280;43467;50.890;5.982;2024-01-07T05:11:54;100311.22;;;5.17;77.32
36234;BME280;43467;50.890;5.982;2024-01-07T05:14:19;100318.19;;;5.18;77.19
36234;BME280;43467;50.890;5.982;2024-01-07T05:16:45;100319.06;;;5.19;76.30
36234;BME280;43467;50.890;5.982;2024-01-07T05:19:10;100313.88;;;5.15;76.37
36234;BME280;43467;50.890;5.982;2024-01-07T05:21:36;100312.91;;;5.20;76.54
36234;BME280;43467;50.890;5.982;2024-01-07T05:24:01;100323.50;;;5.15;76.58
36234;BME280;43467;50.890;5.982;2024-01-07T05:26:30;100323.41;;;5.20;76.60
36234;BME280;43467;50.890;5.982;2024-01-07T05:28:55;100321.94;;;5.06;76.03
36234;BME280;43467;50.890;5.982;2024-01-07T05:31:20;100333.34;;;5.05;76.44
36234;BME280;43467;50.890;5.982;2024-01-07T05:33:46;100322.28;;;4.93;76.78
36234;BME280;43467;50.890;5.982;2024-01-07T05:36:12;100334.78;;;4.80;77.19
36234;BME280;43467;50.890;5.982;2024-01-07T05:38:37;100330.50;;;4.76;77.37
36234;BME280;43467;50.890;5.982;2024-01-07T05:41:03;100337.41;;;4.80;77.78
36234;BME280;43467;50.890;5.982;2024-01-07T05:43:29;100341.59;;;4.89;77.39
36234;BME280;43467;50.890;5.982;2024-01-07T05:45:54;100343.44;;;4.84;77.50
36234;BME280;43467;50.890;5.982;2024-01-07T05:48:23;100346.72;;;4.93;77.20
36234;BME280;43467;50.890;5.982;2024-01-07T05:50:49;100352.22;;;4.81;77.53
36234;BME280;43467;50.890;5.982;2024-01-07T05:53:14;100357.63;;;4.74;77.56
36234;BME280;43467;50.890;5.982;2024-01-07T05:55:40;100350.69;;;4.71;77.57
36234;BME280;43467;50.890;5.982;2024-01-07T05:58:06;100356.88;;;4.67;77.81
36234;BME280;43467;50.890;5.982;2024-01-07T06:00:31;100365.94;;;4.51;78.32
36234;BME280;43467;50.890;5.982;2024-01-07T06:02:57;100369.94;;;4.70;78.51
36234;BME280;43467;50.890;5.982;2024-01-07T06:05:22;100374.41;;;4.65;78.14
36234;BME280;43467;50.890;5.982;2024-01-07T06:07:48;100377.97;;;4.61;78.52
36234;BME280;43467;50.890;5.982;2024-01-07T06:10:13;100376.31;;;4.57;78.25
36234;BME280;43467;50.890;5.982;2024-01-07T06:12:38;100375.47;;;4.56;78.92
36234;BME280;43467;50.890;5.982;2024-01-07T06:15:04;100385.09;;;4.56;78.46
36234;BME280;43467;50.890;5.982;2024-01-07T06:17:30;100375.72;;;4.41;79.30
36234;BME280;43467;50.890;5.982;2024-01-07T06:19:56;100382.66;;;4.45;79.41
36234;BME280;43467;50.890;5.982;2024-01-07T06:22:21;100388.59;;;4.56;78.63
36234;BME280;43467;50.890;5.982;2024-01-07T06:24:47;100383.44;;;4.50;78.45
36234;BME280;43467;50.890;5.982;2024-01-07T06:27:13;100399.16;;;4.50;78.66
36234;BME280;43467;50.890;5.982;2024-01-07T06:29:38;100402.59;;;4.54;78.06
36234;BME280;43467;50.890;5.982;2024-01-07T06:32:04;100400.69;;;4.62;77.89
36234;BME280;43467;50.890;5.982;2024-01-07T06:34:29;100401.38;;;4.72;77.22
36234;BME280;43467;50.890;5.982;2024-01-07T06:36:54;100404.72;;;4.80;76.91
36234;BME280;43467;50.890;5.982;2024-01-07T06:39:20;100403.00;;;4.79;76.84
36234;BME280;43467;50.890;5.982;2024-01-07T06:41:45;100406.34;;;4.85;76.77
36234;BME280;43467;50.890;5.982;2024-01-07T06:44:11;100407.94;;;4.94;76.43
36234;BME280;43467;50.890;5.982;2024-01-07T06:46:37;100414.81;;;5.01;76.11
36234;BME280;43467;50.890;5.982;2024-01-07T06:49:02;100412.97;;;5.04;76.27
36234;BME280;43467;50.890;5.982;2024-01-07T06:51:28;100408.63;;;5.03;75.55
36234;BME280;43467;50.890;5.982;2024-01-07T06:53:53;100413.88;;;5.03;75.76
36234;BME280;43467;50.890;5.982;2024-01-07T06:56:18;100435.03;;;4.94;76.06
36234;BME280;43467;50.890;5.982;2024-01-07T06:58:44;100424.59;;;4.91;76.42
36234;BME280;43467;50.890;5.982;2024-01-07T07:01:10;100429.97;;;4.85;76.75
36234;BME280;43467;50.890;5.982;2024-01-07T07:03:36;100433.28;;;4.95;76.90
36234;BME280;43467;50.890;5.982;2024-01-07T07:06:02;100436.03;;;4.89;76.57
36234;BME280;43467;50.890;5.982;2024-01-07T07:08:27;100434.22;;;4.91;76.67
36234;BME280;43467;50.890;5.982;2024-01-07T07:10:53;100438.84;;;4.78;76.29
36234;BME280;43467;50.890;5.982;2024-01-07T07:13:18;100446.06;;;4.67;76.83
36234;BME280;43467;50.890;5.982;2024-01-07T07:15:43;100446.22;;;4.58;76.70
36234;BME280;43467;50.890;5.982;2024-01-07T07:18:09;100450.00;;;4.43;77.14
36234;BME280;43467;50.890;5.982;2024-01-07T07:20:34;100461.56;;;4.30;77.41
36234;BME280;43467;50.890;5.982;2024-01-07T07:22:59;100469.44;;;4.29;77.78
36234;BME280;43467;50.890;5.982;2024-01-07T07:25:25;100478.25;;;4.25;77.94
36234;BME280;43467;50.890;5.982;2024-01-07T07:27:50;100480.06;;;4.21;78.22
36234;BME280;43467;50.890;5.982;2024-01-07T07:30:16;100487.91;;;4.21;78.34
36234;BME280;43467;50.890;5.982;2024-01-07T07:32:41;100482.72;;;4.19;78.32
36234;BME280;43467;50.890;5.982;2024-01-07T07:35:07;100492.09;;;4.33;77.84
36234;BME280;43467;50.890;5.982;2024-01-07T07:37:33;100504.19;;;4.41;77.48
36234;BME280;43467;50.890;5.982;2024-01-07T07:39:58;100497.31;;;4.34;77.10
36234;BME280;43467;50.890;5.982;2024-01-07T07:42:24;100499.06;;;4.35;77.54
36234;BME280;43467;50.890;5.982;2024-01-07T07:44:50;100511.19;;;4.41;77.73
36234;BME280;43467;50.890;5.982;2024-01-07T07:47:15;100511.09;;;4.47;77.07
36234;BME280;43467;50.890;5.982;2024-01-07T07:49:40;100522.53;;;4.43;77.00
36234;BME280;43467;50.890;5.982;2024-01-07T07:52:07;100519.00;;;4.44;77.28
36234;BME280;43467;50.890;5.982;2024-01-07T07:54:34;100516.41;;;4.44;76.35
36234;BME280;43467;50.890;5.982;2024-01-07T07:56:59;100510.38;;;4.37;76.46
36234;BME280;43467;50.890;5.982;2024-01-07T07:59:24;100515.72;;;4.31;76.27
36234;BME280;43467;50.890;5.982;2024-01-07T08:01:50;100537.50;;;4.33;76.34
36234;BME280;43467;50.890;5.982;2024-01-07T08:04:15;100529.94;;;4.15;77.79
36234;BME280;43467;50.890;5.982;2024-01-07T08:06:41;100536.94;;;4.14;77.34
36234;BME280;43467;50.890;5.982;2024-01-07T08:09:08;100547.38;;;4.17;77.51
36234;BME280;43467;50.890;5.982;2024-01-07T08:11:33;100544.69;;;4.24;77.10
36234;BME280;43467;50.890;5.982;2024-01-07T08:13:59;100549.00;;;4.26;76.90
36234;BME280;43467;50.890;5.982;2024-01-07T08:16:27;100549.00;;;4.25;77.32
36234;BME280;43467;50.890;5.982;2024-01-07T08:18:52;100552.63;;;4.16;77.06
36234;BME280;43467;50.890;5.982;2024-01-07T08:21:18;100564.03;;;4.13;77.28
36234;BME280;43467;50.890;5.982;2024-01-07T08:23:43;100557.88;;;4.16;77.34
36234;BME280;43467;50.890;5.982;2024-01-07T08:26:09;100563.38;;;3.98;76.72
36234;BME280;43467;50.890;5.982;2024-01-07T08:28:34;100561.78;;;3.86;77.76
36234;BME280;43467;50.890;5.982;2024-01-07T08:30:59;100566.91;;;3.95;77.53
36234;BME280;43467;50.890;5.982;2024-01-07T08:33:25;100571.22;;;3.99;77.34
36234;BME280;43467;50.890;5.982;2024-01-07T08:35:50;100575.72;;;3.90;77.76
36234;BME280;43467;50.890;5.982;2024-01-07T08:38:15;100572.19;;;3.92;77.98
36234;BME280;43467;50.890;5.982;2024-01-07T08:40:41;100581.72;;;3.99;77.54
36234;BME280;43467;50.890;5.982;2024-01-07T08:43:06;100582.75;;;3.86;77.53
36234;BME280;43467;50.890;5.982;2024-01-07T08:45:31;100579.22;;;3.89;77.92
36234;BME280;43467;50.890;5.982;2024-01-07T08:47:57;100579.22;;;3.87;77.85
36234;BME280;43467;50.890;5.982;2024-01-07T08:50:22;100583.72;;;3.76;78.44
36234;BME280;43467;50.890;5.982;2024-01-07T08:52:48;100584.66;;;3.73;79.21
36234;BME280;43467;50.890;5.982;2024-01-07T08:55:13;100594.16;;;3.79;78.79
36234;BME280;43467;50.890;5.982;2024-01-07T08:57:39;100594.09;;;3.85;78.86
36234;BME280;43467;50.890;5.982;2024-01-07T09:00:05;100594.19;;;3.78;78.30
36234;BME280;43467;50.890;5.982;2024-01-07T09:02:33;100593.38;;;3.74;78.81
36234;BME280;43467;50.890;5.982;2024-01-07T09:04:58;100602.94;;;3.75;78.75
36234;BME280;43467;50.890;5.982;2024-01-07T09:07:24;100596.00;;;3.74;79.13
36234;BME280;43467;50.890;5.982;2024-01-07T09:09:49;100604.72;;;3.73;78.35
36234;BME280;43467;50.890;5.982;2024-01-07T09:12:15;100603.91;;;3.68;79.26
36234;BME280;43467;50.890;5.982;2024-01-07T09:14:40;100603.81;;;3.77;79.03
36234;BME280;43467;50.890;5.982;2024-01-07T09:17:06;100604.69;;;3.76;78.78
36234;BME280;43467;50.890;5.982;2024-01-07T09:19:31;100610.25;;;3.50;78.40
36234;BME280;43467;50.890;5.982;2024-01-07T09:21:56;100615.38;;;3.58;79.19
36234;BME280;43467;50.890;5.982;2024-01-07T09:24:22;100624.03;;;3.66;79.31
36234;BME280;43467;50.890;5.982;2024-01-07T09:26:47;100620.44;;;3.73;78.52
36234;BME280;43467;50.890;5.982;2024-01-07T09:29:13;100627.28;;;3.83;78.46
36234;BME280;43467;50.890;5.982;2024-01-07T09:31:39;100626.56;;;3.73;78.15
36234;BME280;43467;50.890;5.982;2024-01-07T09:34:08;100636.06;;;3.81;78.28
36234;BME280;43467;50.890;5.982;2024-01-07T09:36:33;100627.28;;;3.83;78.70
36234;BME280;43467;50.890;5.982;2024-01-07T09:39:00;100634.28;;;3.84;78.21
36234;BME280;43467;50.890;5.982;2024-01-07T09:41:26;100650.75;;;3.94;77.58
36234;BME280;43467;50.890;5.982;2024-01-07T09:43:53;100642.84;;;3.98;77.62
36234;BME280;43467;50.890;5.982;2024-01-07T09:46:19;100643.78;;;3.93;76.65
36234;BME280;43467;50.890;5.982;2024-01-07T09:48:45;100650.66;;;4.01;77.23
36234;BME280;43467;50.890;5.982;2024-01-07T09:51:11;100645.41;;;4.03;77.17
36234;BME280;43467;50.890;5.982;2024-01-07T09:53:38;100655.78;;;4.10;76.95
36234;BME280;43467;50.890;5.982;2024-01-07T09:56:20;100651.47;;;4.06;76.97
36234;BME280;43467;50.890;5.982;2024-01-07T09:58:48;100661.84;;;4.14;76.52
36234;BME280;43467;50.890;5.982;2024-01-07T10:01:18;100667.91;;;4.17;76.36
36234;BME280;43467;50.890;5.982;2024-01-07T10:03:44;100660.94;;;4.18;75.98
36234;BME280;43467;50.890;5.982;2024-01-07T10:06:11;100660.94;;;4.16;75.95
36234;BME280;43467;50.890;5.982;2024-01-07T10:08:37;100665.28;;;4.17;75.66
36234;BME280;43467;50.890;5.982;2024-01-07T10:11:02;100661.31;;;3.86;75.86
36234;BME280;43467;50.890;5.982;2024-01-07T10:13:30;100662.97;;;3.95;76.27
36234;BME280;43467;50.890;5.982;2024-01-07T10:15:56;100667.25;;;4.00;76.77
36234;BME280;43467;50.890;5.982;2024-01-07T10:18:21;100666.38;;;4.01;76.66
36234;BME280;43467;50.890;5.982;2024-01-07T10:20:47;100670.78;;;3.99;76.49
36234;BME280;43467;50.890;5.982;2024-01-07T10:23:19;100670.63;;;4.08;76.22
36234;BME280;43467;50.890;5.982;2024-01-07T10:25:44;100666.31;;;4.07;75.80
36234;BME280;43467;50.890;5.982;2024-01-07T10:28:09;100663.50;;;4.22;76.03
36234;BME280;43467;50.890;5.982;2024-01-07T10:30:38;100670.47;;;4.24;75.82
36234;BME280;43467;50.890;5.982;2024-01-07T10:33:04;100668.88;;;4.10;75.69
36234;BME280;43467;50.890;5.982;2024-01-07T10:35:36;100670.50;;;4.20;75.84
36234;BME280;43467;50.890;5.982;2024-01-07T10:38:03;100673.94;;;4.26;75.16
36234;BME280;43467;50.890;5.982;2024-01-07T10:40:30;100680.97;;;4.20;74.96
36234;BME280;43467;50.890;5.982;2024-01-07T10:42:56;100682.66;;;4.28;74.93
36234;BME280;43467;50.890;5.982;2024-01-07T10:45:22;100681.13;;;4.11;74.21
36234;BME280;43467;50.890;5.982;2024-01-07T10:47:49;100679.41;;;4.06;73.80
36234;BME280;43467;50.890;5.982;2024-01-07T10:50:18;100664.81;;;3.85;74.39
36234;BME280;43467;50.890;5.982;2024-01-07T10:52:48;100682.19;;;3.92;74.17
36234;BME280;43467;50.890;5.982;2024-01-07T10:55:14;100684.19;;;3.70;74.85
36234;BME280;43467;50.890;5.982;2024-01-07T10:57:44;100685.81;;;3.79;74.98
36234;BME280;43467;50.890;5.982;2024-01-07T11:00:12;100686.69;;;3.83;74.62
36234;BME280;43467;50.890;5.982;2024-01-07T11:05:37;100702.19;;;4.01;74.37
36234;BME280;43467;50.890;5.982;2024-01-07T11:08:44;100697.84;;;3.98;73.50
36234;BME280;43467;50.890;5.982;2024-01-07T11:11:18;100697.75;;;4.06;73.37
36234;BME280;43467;50.890;5.982;2024-01-07T11:13:46;100686.41;;;4.05;73.58
36234;BME280;43467;50.890;5.982;2024-01-07T11:16:11;100695.91;;;4.14;73.02
36234;BME280;43467;50.890;5.982;2024-01-07T11:18:49;100704.75;;;4.05;72.38
36234;BME280;43467;50.890;5.982;2024-01-07T11:21:22;100702.22;;;3.99;73.08
36234;BME280;43467;50.890;5.982;2024-01-07T11:23:50;100697.84;;;3.98;72.96
36234;BME280;43467;50.890;5.982;2024-01-07T11:26:17;100704.84;;;3.99;72.57
36234;BME280;43467;50.890;5.982;2024-01-07T11:28:50;100703.97;;;3.97;72.37
36234;BME280;43467;50.890;5.982;2024-01-07T11:31:21;100702.22;;;3.96;72.11
36234;BME280;43467;50.890;5.982;2024-01-07T11:33:50;100702.28;;;3.93;72.19
36234;BME280;43467;50.890;5.982;2024-01-07T11:36:17;100703.16;;;3.94;72.46
36234;BME280;43467;50.890;5.982;2024-01-07T11:38:53;100698.81;;;3.88;72.30
36234;BME280;43467;50.890;5.982;2024-01-07T11:41:20;100708.53;;;3.80;72.17
36234;BME280;43467;50.890;5.982;2024-01-07T11:43:56;100706.84;;;3.74;72.84
36234;BME280;43467;50.890;5.982;2024-01-07T11:46:23;100706.84;;;3.74;72.95
36234;BME280;43467;50.890;5.982;2024-01-07T11:48:53;100711.19;;;3.75;72.92
36234;BME280;43467;50.890;5.982;2024-01-07T11:51:19;100697.34;;;3.63;72.69
36234;BME280;43467;50.890;5.982;2024-01-07T11:53:47;100712.16;;;3.67;72.99
36234;BME280;43467;50.890;5.982;2024-01-07T11:56:13;100717.38;;;3.67;72.83
36234;BME280;43467;50.890;5.982;2024-01-07T11:58:40;100711.38;;;3.56;72.94
36234;BME280;43467;50.890;5.982;2024-01-07T12:01:05;100704.50;;;3.49;72.38
36234;BME280;43467;50.890;5.982;2024-01-07T12:03:31;100709.72;;;3.50;73.13
36234;BME280;43467;50.890;5.982;2024-01-07T12:05:56;100707.94;;;3.51;71.92
36234;BME280;43467;50.890;5.982;2024-01-07T12:08:22;100715.88;;;3.46;72.51
36234;BME280;43467;50.890;5.982;2024-01-07T12:10:47;100719.31;;;3.47;72.19
36234;BME280;43467;50.890;5.982;2024-01-07T12:13:13;100715.06;;;3.38;72.64
36234;BME280;43467;50.890;5.982;2024-01-07T12:15:39;100726.31;;;3.49;72.61
36234;BME280;43467;50.890;5.982;2024-01-07T12:18:04;100716.69;;;3.47;72.81
36234;BME280;43467;50.890;5.982;2024-01-07T12:20:30;100712.41;;;3.40;73.19
36234;BME280;43467;50.890;5.982;2024-01-07T12:22:56;100712.34;;;3.47;72.83
36234;BME280;43467;50.890;5.982;2024-01-07T12:25:23;100722.81;;;3.50;73.07
36234;BME280;43467;50.890;5.982;2024-01-07T12:27:51;100723.53;;;3.66;72.83
36234;BME280;43467;50.890;5.982;2024-01-07T12:30:20;100727.03;;;3.65;72.74
36234;BME280;43467;50.890;5.982;2024-01-07T12:32:45;100726.94;;;3.71;72.60
36234;BME280;43467;50.890;5.982;2024-01-07T12:35:11;100720.81;;;3.73;72.50
36234;BME280;43467;50.890;5.982;2024-01-07T12:37:37;100731.31;;;3.72;72.58
36234;BME280;43467;50.890;5.982;2024-01-07T12:40:03;100723.50;;;3.69;72.12
36234;BME280;43467;50.890;5.982;2024-01-07T12:42:29;100735.59;;;3.82;72.13
36234;BME280;43467;50.890;5.982;2024-01-07T12:44:54;100727.97;;;3.58;72.02
36234;BME280;43467;50.890;5.982;2024-01-07T12:47:20;100739.31;;;3.57;71.70
36234;BME280;43467;50.890;5.982;2024-01-07T12:49:45;100736.66;;;3.61;72.04
36234;BME280;43467;50.890;5.982;2024-01-07T12:52:10;100738.44;;;3.56;71.77
36234;BME280;43467;50.890;5.982;2024-01-07T12:54:38;100736.69;;;3.57;72.00
36234;BME280;43467;50.890;5.982;2024-01-07T12:57:03;100745.38;;;3.60;72.32